sensor_id;sensor_type;location;lat;lon;timestamp;temperature;humidity
20335;DHT22;10325;51.468;5.804;2023-03-17T00:02:22;17.10;55.60
20335;DHT22;10325;51.468;5.804;2023-03-17T00:04:53;17.20;55.70
20335;DHT22;10325;51.468;5.804;2023-03-17T00:07:25;17.10;55.60
20335;DHT22;10325;51.468;5.804;2023-03-17T00:09:57;17.10;55.70
20335;DHT22;10325;51.468;5.804;2023-03-17T00:12:27;17.10;55.70
20335;DHT22;10325;51.468;5.804;2023-03-17T00:15:00;17.10;55.70
20335;DHT22;10325;51.468;5.804;2023-03-17T00:17:29;17.10;55.80
20335;DHT22;10325;51.468;5.804;2023-03-17T00:20:06;17.10;55.90
20335;DHT22;10325;51.468;5.804;2023-03-17T00:22:45;17.10;55.70
20335;DHT22;10325;51.468;5.804;2023-03-17T00:25:21;17.10;55.80
20335;DHT22;10325;51.468;5.804;2023-03-17T00:27:51;17.10;55.90
20335;DHT22;10325;51.468;5.804;2023-03-17T00:30:27;17.00;55.90
20335;DHT22;10325;51.468;5.804;2023-03-17T00:33:09;17.10;55.90
20335;DHT22;10325;51.468;5.804;2023-03-17T00:35:46;17.10;56.00
20335;DHT22;10325;51.468;5.804;2023-03-17T00:38:18;17.00;55.90
20335;DHT22;10325;51.468;5.804;2023-03-17T00:40:52;17.00;56.00
20335;DHT22;10325;51.468;5.804;2023-03-17T00:43:27;17.00;56.00
20335;DHT22;10325;51.468;5.804;2023-03-17T00:45:57;17.00;56.00
20335;DHT22;10325;51.468;5.804;2023-03-17T00:48:27;17.00;56.00
20335;DHT22;10325;51.468;5.804;2023-03-17T00:50:59;17.00;56.10
20335;DHT22;10325;51.468;5.804;2023-03-17T00:53:28;17.00;56.10
20335;DHT22;10325;51.468;5.804;2023-03-17T00:55:59;17.00;56.10
20335;DHT22;10325;51.468;5.804;2023-03-17T00:58:33;17.00;56.30
20335;DHT22;10325;51.468;5.804;2023-03-17T01:01:00;17.00;56.20
20335;DHT22;10325;51.468;5.804;2023-03-17T01:03:28;16.90;56.20
20335;DHT22;10325;51.468;5.804;2023-03-17T01:05:59;16.90;56.30
20335;DHT22;10325;51.468;5.804;2023-03-17T01:08:46;16.90;56.90
20335;DHT22;10325;51.468;5.804;2023-03-17T01:11:20;16.90;56.40
20335;DHT22;10325;51.468;5.804;2023-03-17T01:13:49;17.00;56.50
20335;DHT22;10325;51.468;5.804;2023-03-17T01:16:21;16.90;56.40
20335;DHT22;10325;51.468;5.804;2023-03-17T01:18:51;16.90;56.50
20335;DHT22;10325;51.468;5.804;2023-03-17T01:21:21;16.90;56.50
20335;DHT22;10325;51.468;5.804;2023-03-17T01:23:50;16.90;56.60
20335;DHT22;10325;51.468;5.804;2023-03-17T01:26:22;16.90;56.50
20335;DHT22;10325;51.468;5.804;2023-03-17T01:28:54;16.90;56.50
20335;DHT22;10325;51.468;5.804;2023-03-17T01:31:24;16.80;56.50
20335;DHT22;10325;51.468;5.804;2023-03-17T01:33:54;16.90;56.50
20335;DHT22;10325;51.468;5.804;2023-03-17T01:36:23;16.90;56.60
20335;DHT22;10325;51.468;5.804;2023-03-17T01:38:54;16.90;56.50
20335;DHT22;10325;51.468;5.804;2023-03-17T01:41:25;16.80;56.50
20335;DHT22;10325;51.468;5.804;2023-03-17T01:43:56;16.90;56.60
20335;DHT22;10325;51.468;5.804;2023-03-17T01:46:33;16.80;56.50
20335;DHT22;10325;51.468;5.804;2023-03-17T01:52:03;16.80;56.60
20335;DHT22;10325;51.468;5.804;2023-03-17T01:54:59;16.80;56.50
20335;DHT22;10325;51.468;5.804;2023-03-17T01:57:34;16.80;56.50
20335;DHT22;10325;51.468;5.804;2023-03-17T02:00:14;16.80;56.40
20335;DHT22;10325;51.468;5.804;2023-03-17T02:02:50;16.80;56.50
20335;DHT22;10325;51.468;5.804;2023-03-17T02:05:30;16.80;56.40
20335;DHT22;10325;51.468;5.804;2023-03-17T02:08:12;16.80;56.50
20335;DHT22;10325;51.468;5.804;2023-03-17T02:10:53;16.80;56.50
20335;DHT22;10325;51.468;5.804;2023-03-17T02:13:25;16.80;56.50
20335;DHT22;10325;51.468;5.804;2023-03-17T02:16:00;16.80;56.50
20335;DHT22;10325;51.468;5.804;2023-03-17T02:18:31;16.80;56.50
20335;DHT22;10325;51.468;5.804;2023-03-17T02:21:43;16.80;56.40
20335;DHT22;10325;51.468;5.804;2023-03-17T02:24:36;16.80;56.50
20335;DHT22;10325;51.468;5.804;2023-03-17T02:27:31;16.80;56.50
20335;DHT22;10325;51.468;5.804;2023-03-17T02:30:18;16.80;56.50
20335;DHT22;10325;51.468;5.804;2023-03-17T02:32:45;16.80;56.40
20335;DHT22;10325;51.468;5.804;2023-03-17T02:35:18;16.80;56.50
20335;DHT22;10325;51.468;5.804;2023-03-17T02:37:52;16.80;56.50
20335;DHT22;10325;51.468;5.804;2023-03-17T02:40:25;16.70;56.40
20335;DHT22;10325;51.468;5.804;2023-03-17T02:42:55;16.80;56.50
20335;DHT22;10325;51.468;5.804;2023-03-17T02:45:28;16.80;56.50
20335;DHT22;10325;51.468;5.804;2023-03-17T02:48:05;16.70;56.50
20335;DHT22;10325;51.468;5.804;2023-03-17T02:50:37;16.80;56.40
20335;DHT22;10325;51.468;5.804;2023-03-17T02:53:06;16.80;56.50
20335;DHT22;10325;51.468;5.804;2023-03-17T02:55:38;16.80;56.50
20335;DHT22;10325;51.468;5.804;2023-03-17T02:58:09;16.70;56.50
20335;DHT22;10325;51.468;5.804;2023-03-17T03:00:41;16.80;56.60
20335;DHT22;10325;51.468;5.804;2023-03-17T03:03:11;16.80;56.50
20335;DHT22;10325;51.468;5.804;2023-03-17T03:05:41;16.70;56.40
20335;DHT22;10325;51.468;5.804;2023-03-17T03:08:12;16.80;56.40
20335;DHT22;10325;51.468;5.804;2023-03-17T03:10:43;16.70;56.40
20335;DHT22;10325;51.468;5.804;2023-03-17T03:13:18;16.70;56.40
20335;DHT22;10325;51.468;5.804;2023-03-17T03:15:48;16.70;56.40
20335;DHT22;10325;51.468;5.804;2023-03-17T03:18:19;16.80;56.40
20335;DHT22;10325;51.468;5.804;2023-03-17T03:20:48;16.70;56.30
20335;DHT22;10325;51.468;5.804;2023-03-17T03:23:22;16.70;56.30
20335;DHT22;10325;51.468;5.804;2023-03-17T03:25:55;16.70;56.40
20335;DHT22;10325;51.468;5.804;2023-03-17T03:28:27;16.70;56.40
20335;DHT22;10325;51.468;5.804;2023-03-17T03:30:57;16.70;56.40
20335;DHT22;10325;51.468;5.804;2023-03-17T03:33:28;16.80;56.40
20335;DHT22;10325;51.468;5.804;2023-03-17T03:35:59;16.70;56.30
20335;DHT22;10325;51.468;5.804;2023-03-17T03:38:28;16.70;56.30
20335;DHT22;10325;51.468;5.804;2023-03-17T03:41:01;16.70;56.20
20335;DHT22;10325;51.468;5.804;2023-03-17T03:43:32;16.70;56.20
20335;DHT22;10325;51.468;5.804;2023-03-17T03:46:02;16.70;56.20
20335;DHT22;10325;51.468;5.804;2023-03-17T03:48:35;16.70;56.20
20335;DHT22;10325;51.468;5.804;2023-03-17T03:51:06;16.70;56.10
20335;DHT22;10325;51.468;5.804;2023-03-17T03:53:35;16.70;56.20
20335;DHT22;10325;51.468;5.804;2023-03-17T03:56:09;16.70;56.00
20335;DHT22;10325;51.468;5.804;2023-03-17T03:58:41;16.70;56.00
20335;DHT22;10325;51.468;5.804;2023-03-17T04:01:12;16.70;56.00
20335;DHT22;10325;51.468;5.804;2023-03-17T04:03:42;16.60;55.90
20335;DHT22;10325;51.468;5.804;2023-03-17T04:06:12;16.60;56.00
20335;DHT22;10325;51.468;5.804;2023-03-17T04:08:44;16.70;56.00
20335;DHT22;10325;51.468;5.804;2023-03-17T04:11:15;16.70;56.10
20335;DHT22;10325;51.468;5.804;2023-03-17T04:13:45;16.70;56.00
20335;DHT22;10325;51.468;5.804;2023-03-17T04:16:19;16.70;56.00
20335;DHT22;10325;51.468;5.804;2023-03-17T04:18:50;16.70;56.10
20335;DHT22;10325;51.468;5.804;2023-03-17T04:21:21;16.70;56.10
20335;DHT22;10325;51.468;5.804;2023-03-17T04:23:48;16.60;56.10
20335;DHT22;10325;51.468;5.804;2023-03-17T04:26:18;16.60;56.00
20335;DHT22;10325;51.468;5.804;2023-03-17T04:28:48;16.70;56.00
20335;DHT22;10325;51.468;5.804;2023-03-17T04:31:22;16.60;56.00
20335;DHT22;10325;51.468;5.804;2023-03-17T04:33:49;16.60;56.10
20335;DHT22;10325;51.468;5.804;2023-03-17T04:36:31;16.60;56.00
20335;DHT22;10325;51.468;5.804;2023-03-17T04:39:02;16.60;56.10
20335;DHT22;10325;51.468;5.804;2023-03-17T04:41:33;16.60;56.10
20335;DHT22;10325;51.468;5.804;2023-03-17T04:44:02;16.60;56.00
20335;DHT22;10325;51.468;5.804;2023-03-17T04:46:29;16.60;56.00
20335;DHT22;10325;51.468;5.804;2023-03-17T04:49:00;16.60;56.10
20335;DHT22;10325;51.468;5.804;2023-03-17T04:51:32;16.60;56.10
20335;DHT22;10325;51.468;5.804;2023-03-17T04:54:04;16.60;56.10
20335;DHT22;10325;51.468;5.804;2023-03-17T04:56:34;16.60;56.10
20335;DHT22;10325;51.468;5.804;2023-03-17T04:59:06;16.60;56.00
20335;DHT22;10325;51.468;5.804;2023-03-17T05:01:38;16.60;56.10
20335;DHT22;10325;51.468;5.804;2023-03-17T05:04:08;16.60;56.00
20335;DHT22;10325;51.468;5.804;2023-03-17T05:06:44;16.60;56.10
20335;DHT22;10325;51.468;5.804;2023-03-17T05:09:16;16.60;56.10
20335;DHT22;10325;51.468;5.804;2023-03-17T05:11:44;16.60;56.10
20335;DHT22;10325;51.468;5.804;2023-03-17T05:14:15;16.60;56.10
20335;DHT22;10325;51.468;5.804;2023-03-17T05:16:50;16.50;56.10
20335;DHT22;10325;51.468;5.804;2023-03-17T05:19:20;16.60;56.20
20335;DHT22;10325;51.468;5.804;2023-03-17T05:21:51;16.60;56.10
20335;DHT22;10325;51.468;5.804;2023-03-17T05:24:22;16.60;56.10
20335;DHT22;10325;51.468;5.804;2023-03-17T05:27:04;16.60;56.10
20335;DHT22;10325;51.468;5.804;2023-03-17T05:29:36;16.60;56.10
20335;DHT22;10325;51.468;5.804;2023-03-17T05:32:18;16.60;56.10
20335;DHT22;10325;51.468;5.804;2023-03-17T05:34:50;16.60;56.00
20335;DHT22;10325;51.468;5.804;2023-03-17T05:37:23;16.50;56.00
20335;DHT22;10325;51.468;5.804;2023-03-17T05:39:51;16.50;56.00
20335;DHT22;10325;51.468;5.804;2023-03-17T05:42:23;16.50;55.90
20335;DHT22;10325;51.468;5.804;2023-03-17T05:44:55;16.50;55.90
20335;DHT22;10325;51.468;5.804;2023-03-17T05:47:24;16.50;55.90
20335;DHT22;10325;51.468;5.804;2023-03-17T05:49:53;16.50;55.90
20335;DHT22;10325;51.468;5.804;2023-03-17T05:52:23;16.50;55.80
20335;DHT22;10325;51.468;5.804;2023-03-17T05:54:55;16.60;55.90
20335;DHT22;10325;51.468;5.804;2023-03-17T05:57:37;16.50;55.80
20335;DHT22;10325;51.468;5.804;2023-03-17T06:00:05;16.50;55.70
20335;DHT22;10325;51.468;5.804;2023-03-17T06:02:37;16.50;55.80
20335;DHT22;10325;51.468;5.804;2023-03-17T06:05:08;16.50;55.70
20335;DHT22;10325;51.468;5.804;2023-03-17T06:07:39;16.50;55.70
20335;DHT22;10325;51.468;5.804;2023-03-17T06:10:24;16.50;55.70
20335;DHT22;10325;51.468;5.804;2023-03-17T06:12:56;16.50;55.70
20335;DHT22;10325;51.468;5.804;2023-03-17T06:15:31;16.50;55.70
20335;DHT22;10325;51.468;5.804;2023-03-17T06:18:14;16.50;55.80
20335;DHT22;10325;51.468;5.804;2023-03-17T06:20:43;16.50;55.80
20335;DHT22;10325;51.468;5.804;2023-03-17T06:23:11;16.50;56.30
20335;DHT22;10325;51.468;5.804;2023-03-17T06:25:43;16.50;56.90
20335;DHT22;10325;51.468;5.804;2023-03-17T06:28:15;16.50;56.20
20335;DHT22;10325;51.468;5.804;2023-03-17T06:30:53;16.50;56.00
20335;DHT22;10325;51.468;5.804;2023-03-17T06:33:24;16.50;55.90
20335;DHT22;10325;51.468;5.804;2023-03-17T06:35:55;16.50;55.80
20335;DHT22;10325;51.468;5.804;2023-03-17T06:38:27;16.40;55.80
20335;DHT22;10325;51.468;5.804;2023-03-17T06:40:54;16.50;55.80
20335;DHT22;10325;51.468;5.804;2023-03-17T06:43:24;16.50;55.70
20335;DHT22;10325;51.468;5.804;2023-03-17T06:45:54;16.50;55.80
20335;DHT22;10325;51.468;5.804;2023-03-17T06:48:23;16.50;56.00
20335;DHT22;10325;51.468;5.804;2023-03-17T06:50:54;16.50;55.90
20335;DHT22;10325;51.468;5.804;2023-03-17T06:53:24;16.50;55.50
20335;DHT22;10325;51.468;5.804;2023-03-17T06:55:56;16.40;55.80
20335;DHT22;10325;51.468;5.804;2023-03-17T06:58:28;16.50;55.70
20335;DHT22;10325;51.468;5.804;2023-03-17T07:01:00;16.50;55.70
20335;DHT22;10325;51.468;5.804;2023-03-17T07:03:31;16.50;55.60
20335;DHT22;10325;51.468;5.804;2023-03-17T07:05:59;16.50;55.50
20335;DHT22;10325;51.468;5.804;2023-03-17T07:08:31;16.50;55.40
20335;DHT22;10325;51.468;5.804;2023-03-17T07:11:04;16.50;55.40
20335;DHT22;10325;51.468;5.804;2023-03-17T07:13:36;16.50;55.50
20335;DHT22;10325;51.468;5.804;2023-03-17T07:16:07;16.50;55.40
20335;DHT22;10325;51.468;5.804;2023-03-17T07:18:35;16.50;55.50
20335;DHT22;10325;51.468;5.804;2023-03-17T07:21:06;16.50;55.50
20335;DHT22;10325;51.468;5.804;2023-03-17T07:23:42;16.50;55.40
20335;DHT22;10325;51.468;5.804;2023-03-17T07:26:10;16.60;56.60
20335;DHT22;10325;51.468;5.804;2023-03-17T07:28:40;16.60;56.80
20335;DHT22;10325;51.468;5.804;2023-03-17T07:31:09;16.70;56.30
20335;DHT22;10325;51.468;5.804;2023-03-17T07:33:45;16.70;56.80
20335;DHT22;10325;51.468;5.804;2023-03-17T07:36:19;16.70;57.50
20335;DHT22;10325;51.468;5.804;2023-03-17T07:38:49;16.80;57.60
20335;DHT22;10325;51.468;5.804;2023-03-17T07:41:20;16.90;57.40
20335;DHT22;10325;51.468;5.804;2023-03-17T07:43:50;17.00;57.50
20335;DHT22;10325;51.468;5.804;2023-03-17T07:46:21;17.10;57.30
20335;DHT22;10325;51.468;5.804;2023-03-17T07:48:49;17.20;57.10
20335;DHT22;10325;51.468;5.804;2023-03-17T07:51:20;17.30;56.80
20335;DHT22;10325;51.468;5.804;2023-03-17T07:53:57;17.40;56.50
20335;DHT22;10325;51.468;5.804;2023-03-17T07:56:34;17.40;56.10
20335;DHT22;10325;51.468;5.804;2023-03-17T07:59:16;17.50;56.00
20335;DHT22;10325;51.468;5.804;2023-03-17T08:01:54;17.60;56.00
20335;DHT22;10325;51.468;5.804;2023-03-17T08:04:25;17.60;55.60
20335;DHT22;10325;51.468;5.804;2023-03-17T08:06:58;17.70;55.60
20335;DHT22;10325;51.468;5.804;2023-03-17T08:09:30;17.80;55.60
20335;DHT22;10325;51.468;5.804;2023-03-17T08:12:00;17.80;55.30
20335;DHT22;10325;51.468;5.804;2023-03-17T08:14:33;17.90;54.40
20335;DHT22;10325;51.468;5.804;2023-03-17T08:17:03;18.00;54.50
20335;DHT22;10325;51.468;5.804;2023-03-17T08:19:34;18.10;53.90
20335;DHT22;10325;51.468;5.804;2023-03-17T08:22:03;18.10;54.00
20335;DHT22;10325;51.468;5.804;2023-03-17T08:24:34;18.20;54.10
20335;DHT22;10325;51.468;5.804;2023-03-17T08:27:07;18.20;53.40
20335;DHT22;10325;51.468;5.804;2023-03-17T08:29:39;18.30;52.80
20335;DHT22;10325;51.468;5.804;2023-03-17T08:32:08;18.40;53.30
20335;DHT22;10325;51.468;5.804;2023-03-17T08:34:42;18.40;53.40
20335;DHT22;10325;51.468;5.804;2023-03-17T08:37:18;18.50;53.00
20335;DHT22;10325;51.468;5.804;2023-03-17T08:39:51;18.60;52.90
20335;DHT22;10325;51.468;5.804;2023-03-17T08:42:20;18.60;52.70
20335;DHT22;10325;51.468;5.804;2023-03-17T08:44:52;18.70;52.20
20335;DHT22;10325;51.468;5.804;2023-03-17T08:47:24;18.70;51.90
20335;DHT22;10325;51.468;5.804;2023-03-17T08:49:53;18.80;51.90
20335;DHT22;10325;51.468;5.804;2023-03-17T08:52:24;18.80;51.90
20335;DHT22;10325;51.468;5.804;2023-03-17T08:54:56;18.90;52.40
20335;DHT22;10325;51.468;5.804;2023-03-17T08:57:27;18.90;52.00
20335;DHT22;10325;51.468;5.804;2023-03-17T08:59:59;19.00;52.10
20335;DHT22;10325;51.468;5.804;2023-03-17T09:02:32;19.00;51.70
20335;DHT22;10325;51.468;5.804;2023-03-17T09:05:03;19.10;51.50
20335;DHT22;10325;51.468;5.804;2023-03-17T09:07:33;19.10;51.60
20335;DHT22;10325;51.468;5.804;2023-03-17T09:10:12;19.10;51.30
20335;DHT22;10325;51.468;5.804;2023-03-17T09:12:45;19.20;52.00
20335;DHT22;10325;51.468;5.804;2023-03-17T09:15:16;19.20;51.70
20335;DHT22;10325;51.468;5.804;2023-03-17T09:17:48;19.20;51.70
20335;DHT22;10325;51.468;5.804;2023-03-17T09:20:24;19.20;51.60
20335;DHT22;10325;51.468;5.804;2023-03-17T09:22:56;19.30;51.30
20335;DHT22;10325;51.468;5.804;2023-03-17T09:25:26;19.30;51.60
20335;DHT22;10325;51.468;5.804;2023-03-17T09:27:57;19.30;51.40
20335;DHT22;10325;51.468;5.804;2023-03-17T09:30:29;19.40;51.10
20335;DHT22;10325;51.468;5.804;2023-03-17T09:33:00;19.50;51.40
20335;DHT22;10325;51.468;5.804;2023-03-17T09:35:31;19.50;51.10
20335;DHT22;10325;51.468;5.804;2023-03-17T09:38:03;19.50;51.20
20335;DHT22;10325;51.468;5.804;2023-03-17T09:40:38;19.50;51.00
20335;DHT22;10325;51.468;5.804;2023-03-17T09:43:46;19.50;51.00
20335;DHT22;10325;51.468;5.804;2023-03-17T09:46:52;19.60;50.80
20335;DHT22;10325;51.468;5.804;2023-03-17T09:49:46;19.60;50.50
20335;DHT22;10325;51.468;5.804;2023-03-17T09:52:32;19.60;50.50
20335;DHT22;10325;51.468;5.804;2023-03-17T09:55:05;19.60;50.50
20335;DHT22;10325;51.468;5.804;2023-03-17T09:57:39;19.70;50.30
20335;DHT22;10325;51.468;5.804;2023-03-17T10:00:26;19.70;50.00
20335;DHT22;10325;51.468;5.804;2023-03-17T10:03:02;19.80;50.10
20335;DHT22;10325;51.468;5.804;2023-03-17T10:05:38;19.80;50.40
20335;DHT22;10325;51.468;5.804;2023-03-17T10:08:40;19.80;50.10
20335;DHT22;10325;51.468;5.804;2023-03-17T10:11:35;19.90;50.40
20335;DHT22;10325;51.468;5.804;2023-03-17T10:14:37;19.90;50.20
20335;DHT22;10325;51.468;5.804;2023-03-17T10:17:24;19.90;50.00
20335;DHT22;10325;51.468;5.804;2023-03-17T10:20:17;19.90;50.40
20335;DHT22;10325;51.468;5.804;2023-03-17T10:25:34;20.00;50.40
20335;DHT22;10325;51.468;5.804;2023-03-17T10:28:39;20.00;50.30
20335;DHT22;10325;51.468;5.804;2023-03-17T10:31:25;20.10;50.10
20335;DHT22;10325;51.468;5.804;2023-03-17T10:34:25;20.10;50.20
20335;DHT22;10325;51.468;5.804;2023-03-17T10:37:12;20.10;50.30
20335;DHT22;10325;51.468;5.804;2023-03-17T10:39:54;20.20;50.60
20335;DHT22;10325;51.468;5.804;2023-03-17T10:42:29;20.20;50.20
20335;DHT22;10325;51.468;5.804;2023-03-17T10:45:37;20.20;50.70
20335;DHT22;10325;51.468;5.804;2023-03-17T10:48:17;20.20;49.90
20335;DHT22;10325;51.468;5.804;2023-03-17T10:50:50;20.00;49.70
20335;DHT22;10325;51.468;5.804;2023-03-17T10:53:24;19.90;49.90
20335;DHT22;10325;51.468;5.804;2023-03-17T10:56:08;19.80;50.30
20335;DHT22;10325;51.468;5.804;2023-03-17T10:58:50;19.80;50.40
20335;DHT22;10325;51.468;5.804;2023-03-17T11:01:39;19.70;50.50
20335;DHT22;10325;51.468;5.804;2023-03-17T11:04:33;19.70;50.80
20335;DHT22;10325;51.468;5.804;2023-03-17T11:07:13;19.60;51.10
20335;DHT22;10325;51.468;5.804;2023-03-17T11:09:56;19.60;51.20
20335;DHT22;10325;51.468;5.804;2023-03-17T11:12:38;19.50;51.40
20335;DHT22;10325;51.468;5.804;2023-03-17T11:15:15;19.40;51.50
20335;DHT22;10325;51.468;5.804;2023-03-17T11:17:57;19.40;51.90
20335;DHT22;10325;51.468;5.804;2023-03-17T11:20:46;19.50;52.20
20335;DHT22;10325;51.468;5.804;2023-03-17T11:26:34;19.50;52.00
20335;DHT22;10325;51.468;5.804;2023-03-17T11:32:31;19.40;52.10
20335;DHT22;10325;51.468;5.804;2023-03-17T11:38:26;19.30;52.10
20335;DHT22;10325;51.468;5.804;2023-03-17T11:41:41;19.30;51.90
20335;DHT22;10325;51.468;5.804;2023-03-17T11:56:47;19.40;52.20
20335;DHT22;10325;51.468;5.804;2023-03-17T11:59:39;19.60;52.20
20335;DHT22;10325;51.468;5.804;2023-03-17T12:02:37;19.70;52.00
20335;DHT22;10325;51.468;5.804;2023-03-17T12:05:14;19.80;52.20
20335;DHT22;10325;51.468;5.804;2023-03-17T12:10:50;19.90;52.00
20335;DHT22;10325;51.468;5.804;2023-03-17T12:21:47;20.10;52.10
20335;DHT22;10325;51.468;5.804;2023-03-17T12:27:39;20.20;52.20
20335;DHT22;10325;51.468;5.804;2023-03-17T12:30:27;20.20;52.10
20335;DHT22;10325;51.468;5.804;2023-03-17T12:36:36;20.40;52.10
20335;DHT22;10325;51.468;5.804;2023-03-17T12:39:39;20.40;52.10
20335;DHT22;10325;51.468;5.804;2023-03-17T12:48:53;20.50;51.90
20335;DHT22;10325;51.468;5.804;2023-03-17T12:54:32;20.60;51.50
20335;DHT22;10325;51.468;5.804;2023-03-17T12:57:21;20.60;51.70
20335;DHT22;10325;51.468;5.804;2023-03-17T13:00:47;20.60;51.70
20335;DHT22;10325;51.468;5.804;2023-03-17T13:03:24;20.60;51.60
20335;DHT22;10325;51.468;5.804;2023-03-17T13:06:00;20.70;51.30
20335;DHT22;10325;51.468;5.804;2023-03-17T13:08:41;20.70;51.90
20335;DHT22;10325;51.468;5.804;2023-03-17T13:14:23;20.80;51.90
20335;DHT22;10325;51.468;5.804;2023-03-17T13:20:13;20.80;51.40
20335;DHT22;10325;51.468;5.804;2023-03-17T13:23:09;20.90;51.40
20335;DHT22;10325;51.468;5.804;2023-03-17T13:25:51;20.90;52.20
20335;DHT22;10325;51.468;5.804;2023-03-17T13:34:18;21.00;51.00
20335;DHT22;10325;51.468;5.804;2023-03-17T13:37:18;21.00;51.30
20335;DHT22;10325;51.468;5.804;2023-03-17T13:40:20;21.10;51.00
20335;DHT22;10325;51.468;5.804;2023-03-17T13:45:55;21.10;51.40
20335;DHT22;10325;51.468;5.804;2023-03-17T13:48:42;21.10;51.00
20335;DHT22;10325;51.468;5.804;2023-03-17T13:51:20;21.20;50.60
20335;DHT22;10325;51.468;5.804;2023-03-17T13:53:56;21.20;50.90
20335;DHT22;10325;51.468;5.804;2023-03-17T13:56:47;21.30;51.10
20335;DHT22;10325;51.468;5.804;2023-03-17T14:00:19;21.10;51.00
20335;DHT22;10325;51.468;5.804;2023-03-17T14:03:33;20.90;51.90
20335;DHT22;10325;51.468;5.804;2023-03-17T14:06:06;20.80;52.50
20335;DHT22;10325;51.468;5.804;2023-03-17T14:09:01;20.70;52.80
20335;DHT22;10325;51.468;5.804;2023-03-17T14:11:38;20.70;52.80
20335;DHT22;10325;51.468;5.804;2023-03-17T14:14:45;20.60;53.10
20335;DHT22;10325;51.468;5.804;2023-03-17T14:17:28;20.60;53.30
20335;DHT22;10325;51.468;5.804;2023-03-17T14:22:58;20.70;52.90
20335;DHT22;10325;51.468;5.804;2023-03-17T14:25:40;20.70;52.90
20335;DHT22;10325;51.468;5.804;2023-03-17T14:28:15;20.70;52.80
20335;DHT22;10325;51.468;5.804;2023-03-17T14:31:00;20.70;52.90
20335;DHT22;10325;51.468;5.804;2023-03-17T14:33:41;20.70;52.90
20335;DHT22;10325;51.468;5.804;2023-03-17T14:36:13;20.80;52.80
20335;DHT22;10325;51.468;5.804;2023-03-17T14:38:52;20.90;52.80
20335;DHT22;10325;51.468;5.804;2023-03-17T14:41:26;20.90;52.60
20335;DHT22;10325;51.468;5.804;2023-03-17T14:44:00;21.00;52.70
20335;DHT22;10325;51.468;5.804;2023-03-17T14:46:36;21.00;52.60
20335;DHT22;10325;51.468;5.804;2023-03-17T14:49:21;21.10;52.40
20335;DHT22;10325;51.468;5.804;2023-03-17T14:51:51;21.20;52.70
20335;DHT22;10325;51.468;5.804;2023-03-17T14:54:36;21.20;52.60
20335;DHT22;10325;51.468;5.804;2023-03-17T14:57:13;21.30;52.50
20335;DHT22;10325;51.468;5.804;2023-03-17T15:00:00;21.20;52.40
20335;DHT22;10325;51.468;5.804;2023-03-17T15:02:35;21.30;52.00
20335;DHT22;10325;51.468;5.804;2023-03-17T15:07:50;21.30;52.00
20335;DHT22;10325;51.468;5.804;2023-03-17T15:10:25;21.30;51.40
20335;DHT22;10325;51.468;5.804;2023-03-17T15:13:04;21.20;52.80
20335;DHT22;10325;51.468;5.804;2023-03-17T15:15:34;21.20;52.80
20335;DHT22;10325;51.468;5.804;2023-03-17T15:18:12;21.30;52.70
20335;DHT22;10325;51.468;5.804;2023-03-17T15:20:44;21.30;52.80
20335;DHT22;10325;51.468;5.804;2023-03-17T15:23:22;21.40;52.80
20335;DHT22;10325;51.468;5.804;2023-03-17T15:25:53;21.40;52.90
20335;DHT22;10325;51.468;5.804;2023-03-17T15:28:30;21.50;52.50
20335;DHT22;10325;51.468;5.804;2023-03-17T15:31:18;21.50;52.70
20335;DHT22;10325;51.468;5.804;2023-03-17T15:33:58;21.50;52.70
20335;DHT22;10325;51.468;5.804;2023-03-17T15:36:28;21.50;52.60
20335;DHT22;10325;51.468;5.804;2023-03-17T15:39:01;21.50;52.60
20335;DHT22;10325;51.468;5.804;2023-03-17T15:41:33;21.50;52.70
20335;DHT22;10325;51.468;5.804;2023-03-17T15:44:03;21.50;52.70
20335;DHT22;10325;51.468;5.804;2023-03-17T15:46:36;21.60;52.80
20335;DHT22;10325;51.468;5.804;2023-03-17T15:49:11;21.60;52.00
20335;DHT22;10325;51.468;5.804;2023-03-17T15:51:40;21.40;52.90
20335;DHT22;10325;51.468;5.804;2023-03-17T15:54:15;21.50;53.00
20335;DHT22;10325;51.468;5.804;2023-03-17T15:56:58;21.50;53.00
20335;DHT22;10325;51.468;5.804;2023-03-17T15:59:27;21.60;52.70
20335;DHT22;10325;51.468;5.804;2023-03-17T16:02:07;21.60;52.70
20335;DHT22;10325;51.468;5.804;2023-03-17T16:04:47;21.70;52.60
20335;DHT22;10325;51.468;5.804;2023-03-17T16:07:18;21.70;52.80
20335;DHT22;10325;51.468;5.804;2023-03-17T16:09:50;21.70;52.80
20335;DHT22;10325;51.468;5.804;2023-03-17T16:12:19;21.70;52.90
20335;DHT22;10325;51.468;5.804;2023-03-17T16:14:52;21.80;52.60
20335;DHT22;10325;51.468;5.804;2023-03-17T16:17:24;21.70;52.90
20335;DHT22;10325;51.468;5.804;2023-03-17T16:19:55;21.70;53.30
20335;DHT22;10325;51.468;5.804;2023-03-17T16:22:35;21.70;52.80
20335;DHT22;10325;51.468;5.804;2023-03-17T16:25:29;21.80;53.10
20335;DHT22;10325;51.468;5.804;2023-03-17T16:28:06;21.80;52.70
20335;DHT22;10325;51.468;5.804;2023-03-17T16:30:43;21.80;53.00
20335;DHT22;10325;51.468;5.804;2023-03-17T16:33:22;21.80;52.90
20335;DHT22;10325;51.468;5.804;2023-03-17T16:36:05;21.80;53.10
20335;DHT22;10325;51.468;5.804;2023-03-17T16:38:35;21.80;52.70
20335;DHT22;10325;51.468;5.804;2023-03-17T16:41:25;21.80;52.90
20335;DHT22;10325;51.468;5.804;2023-03-17T16:44:00;21.80;52.80
20335;DHT22;10325;51.468;5.804;2023-03-17T16:46:33;21.80;51.90
20335;DHT22;10325;51.468;5.804;2023-03-17T16:49:03;21.50;52.60
20335;DHT22;10325;51.468;5.804;2023-03-17T16:51:32;21.30;53.20
20335;DHT22;10325;51.468;5.804;2023-03-17T16:54:01;21.10;53.70
20335;DHT22;10325;51.468;5.804;2023-03-17T16:56:34;21.10;54.10
20335;DHT22;10325;51.468;5.804;2023-03-17T16:59:13;21.00;54.30
20335;DHT22;10325;51.468;5.804;2023-03-17T17:01:46;20.90;54.50
20335;DHT22;10325;51.468;5.804;2023-03-17T17:04:19;20.80;54.60
20335;DHT22;10325;51.468;5.804;2023-03-17T17:06:47;20.70;55.00
20335;DHT22;10325;51.468;5.804;2023-03-17T17:09:21;20.70;55.10
20335;DHT22;10325;51.468;5.804;2023-03-17T17:11:51;20.60;55.20
20335;DHT22;10325;51.468;5.804;2023-03-17T17:14:22;20.60;55.30
20335;DHT22;10325;51.468;5.804;2023-03-17T17:16:51;20.60;55.40
20335;DHT22;10325;51.468;5.804;2023-03-17T17:19:31;20.50;55.30
20335;DHT22;10325;51.468;5.804;2023-03-17T17:22:04;20.50;55.50
20335;DHT22;10325;51.468;5.804;2023-03-17T17:24:32;20.40;55.60
20335;DHT22;10325;51.468;5.804;2023-03-17T17:27:06;20.40;55.60
20335;DHT22;10325;51.468;5.804;2023-03-17T17:29:35;20.40;55.70
20335;DHT22;10325;51.468;5.804;2023-03-17T17:32:05;20.40;55.60
20335;DHT22;10325;51.468;5.804;2023-03-17T17:34:37;20.30;55.60
20335;DHT22;10325;51.468;5.804;2023-03-17T17:37:08;20.30;55.50
20335;DHT22;10325;51.468;5.804;2023-03-17T17:39:36;20.30;55.30
20335;DHT22;10325;51.468;5.804;2023-03-17T17:42:09;20.30;55.40